Time;durP1;ratioP1;P1;durP2;ratioP2;P2;SDS_P1;SDS_P2;PMS_P1;PMS_P2;Temp;Humidity;BMP_temperature;BMP_pressure;BME280_temperature;BME280_humidity;BME280_pressure;Samples;Min_cycle;Max_cycle;Signal;HPM_P1;HPM_P2
2022/11/20 07:16:08;;;;;;;;;4.25;3.00;;;;;17.36;54.18;101031.38;5096616;27;45420;-70
2022/11/20 07:18:34;;;;;;;;;2.50;1.50;;;;;17.63;54.70;101019.44;5099074;27;45550;-70
2022/11/20 07:21:04;;;;;;;;;2.00;2.00;;;;;18.17;55.00;101023.19;5089918;27;45462;-69
2022/11/20 07:23:30;;;;;;;;;3.00;3.00;;;;;18.73;54.57;101022.25;5091170;27;45572;-69
2022/11/20 07:25:55;;;;;;;;;1.50;1.50;;;;;19.34;55.01;101023.38;5091630;27;46037;-68
2022/11/20 07:28:20;;;;;;;;;2.00;2.00;;;;;19.90;54.31;101021.19;5091737;27;45488;-69
2022/11/20 07:30:51;;;;;;;;;3.67;3.67;;;;;20.44;54.01;101026.25;5092349;27;45515;-70
2022/11/20 07:33:16;;;;;;;;;2.67;2.67;;;;;20.87;54.04;101024.16;5091422;27;45778;-70
2022/11/20 07:35:41;;;;;;;;;3.00;3.00;;;;;21.25;53.58;101024.22;5086219;27;45956;-69
2022/11/20 07:38:07;;;;;;;;;3.67;2.33;;;;;21.54;52.88;101017.03;5098225;27;50480;-69
2022/11/20 07:40:33;;;;;;;;;2.00;2.00;;;;;21.82;52.77;101022.47;5092567;27;45466;-70
2022/11/20 07:42:58;;;;;;;;;3.00;3.00;;;;;22.13;52.61;101018.59;5091741;27;56705;-70
2022/11/20 07:45:24;;;;;;;;;4.00;2.00;;;;;22.39;52.04;101018.69;5090728;27;46379;-71
2022/11/20 07:47:50;;;;;;;;;2.00;2.00;;;;;22.64;51.83;101011.69;5090626;27;45441;-70
2022/11/20 07:50:16;;;;;;;;;1.00;1.00;;;;;22.88;51.89;101014.72;5088630;27;45481;-71
2022/11/20 07:52:41;;;;;;;;;3.33;3.00;;;;;23.06;51.77;101024.69;5089185;27;45629;-70
2022/11/20 07:55:08;;;;;;;;;3.00;3.00;;;;;23.25;51.19;101020.91;5091574;27;45955;-70
2022/11/20 07:57:34;;;;;;;;;2.00;2.00;;;;;23.41;51.30;101012.91;5091930;27;45732;-71
2022/11/20 07:59:59;;;;;;;;;2.67;2.33;;;;;23.53;51.03;101018.03;5096969;27;53340;-70
2022/11/20 08:02:25;;;;;;;;;1.67;1.67;;;;;23.63;50.70;101010.63;5093821;27;45369;-71
2022/11/20 08:04:50;;;;;;;;;2.33;2.33;;;;;23.75;50.50;101015.78;5091748;27;47055;-70
2022/11/20 08:07:15;;;;;;;;;4.33;2.33;;;;;23.84;50.26;101022.06;5094574;27;45343;-70
2022/11/20 08:09:41;;;;;;;;;2.00;2.00;;;;;23.95;50.07;101027.22;5091215;27;45391;-70
2022/11/20 08:14:51;;;;;;;;;5.00;3.00;;;;;24.16;49.96;101020.50;5089628;27;45495;-69
2022/11/20 08:17:16;;;;;;;;;2.33;2.33;;;;;24.27;49.55;101011.22;5091034;27;45503;-70
2022/11/20 08:19:41;;;;;;;;;3.00;3.00;;;;;24.37;49.66;101013.75;5087062;27;45437;-70
2022/11/20 08:22:06;;;;;;;;;3.67;2.00;;;;;24.50;49.59;101013.25;5095188;27;45594;-70
2022/11/20 08:24:32;;;;;;;;;3.00;3.00;;;;;24.59;49.20;101013.09;5097341;27;46222;-69
2022/11/20 08:27:00;;;;;;;;;2.00;2.00;;;;;24.67;49.31;101006.81;5077466;27;45379;-67
2022/11/20 08:29:27;;;;;;;;;2.00;2.00;;;;;24.77;48.83;101011.22;5073833;27;45481;-67
2022/11/20 08:31:52;;;;;;;;;3.67;2.33;;;;;24.72;48.70;101007.16;5075510;27;45572;-67
2022/11/20 08:34:17;;;;;;;;;2.33;2.33;;;;;24.69;48.60;101004.78;5074425;27;46358;-67
2022/11/20 08:36:43;;;;;;;;;2.00;2.00;;;;;24.66;48.25;100996.13;5076764;27;45343;-68
2022/11/20 08:39:11;;;;;;;;;2.00;2.00;;;;;24.57;48.15;100982.56;5073257;27;48152;-68
2022/11/20 08:41:37;;;;;;;;;3.67;3.67;;;;;24.59;47.99;100985.97;5077852;27;45612;-69
2022/11/20 08:44:04;;;;;;;;;4.00;3.33;;;;;24.65;48.10;100991.72;5076208;27;45458;-69
2022/11/20 08:46:36;;;;;;;;;3.00;2.67;;;;;24.70;47.99;100981.19;5074401;27;45462;-69
2022/11/20 08:49:06;;;;;;;;;4.00;2.33;;;;;24.81;47.59;100983.56;5074094;27;45390;-69
2022/11/20 08:51:32;;;;;;;;;2.00;2.00;;;;;24.85;47.56;100974.09;5072749;27;45408;-68
2022/11/20 08:53:57;;;;;;;;;4.00;2.67;;;;;24.97;48.05;100980.00;5082939;27;46312;-70
2022/11/20 08:56:22;;;;;;;;;2.33;2.33;;;;;25.07;47.73;100977.13;5075551;27;45483;-70
2022/11/20 08:58:51;;;;;;;;;4.67;3.00;;;;;25.12;47.58;100963.84;5079810;27;45506;-70
2022/11/20 09:01:16;;;;;;;;;2.67;2.67;;;;;25.21;47.38;100961.97;5075597;27;45484;-70
2022/11/20 09:03:41;;;;;;;;;2.00;2.00;;;;;25.24;47.08;100948.03;5078605;27;46263;-69
2022/11/20 09:06:07;;;;;;;;;1.67;1.67;;;;;25.30;47.51;100953.78;5075136;27;45477;-69
2022/11/20 09:08:35;;;;;;;;;2.00;2.00;;;;;25.37;46.88;100949.31;5085255;27;46256;-69
2022/11/20 09:11:00;;;;;;;;;3.00;3.00;;;;;25.40;47.02;100938.13;5074547;27;45620;-69
2022/11/20 09:13:27;;;;;;;;;3.67;3.00;;;;;25.41;47.37;100934.38;5076236;27;46141;-70
2022/11/20 09:15:58;;;;;;;;;3.00;2.00;;;;;25.45;46.83;100941.16;5077494;27;45511;-70
2022/11/20 09:18:24;;;;;;;;;2.00;2.00;;;;;25.46;46.48;100940.13;5079891;27;45596;-70
2022/11/20 09:20:50;;;;;;;;;1.00;1.00;;;;;25.44;46.87;100939.47;5076147;27;45446;-70
2022/11/20 09:23:16;;;;;;;;;2.00;2.00;;;;;25.44;46.51;100947.63;5080319;27;46714;-70
2022/11/20 09:25:42;;;;;;;;;2.00;2.00;;;;;25.46;46.62;100939.28;5073860;27;45422;-67
2022/11/20 09:28:07;;;;;;;;;2.33;2.00;;;;;25.52;46.71;100949.44;5075064;27;45442;-67
2022/11/20 09:30:32;;;;;;;;;2.00;2.00;;;;;25.57;46.49;100940.78;5076816;27;51886;-68
2022/11/20 09:32:58;;;;;;;;;5.00;2.00;;;;;25.64;46.76;100933.63;5073879;27;53248;-69
2022/11/20 09:35:23;;;;;;;;;3.67;3.67;;;;;25.64;46.22;100928.19;5071512;28;45403;-68
2022/11/20 09:37:48;;;;;;;;;3.00;3.00;;;;;25.68;46.03;100924.09;5078305;27;45465;-68
2022/11/20 09:40:21;;;;;;;;;1.33;1.33;;;;;25.72;46.02;100930.00;5082505;27;55263;-69
2022/11/20 09:43:01;;;;;;;;;1.33;1.33;;;;;25.71;45.98;100904.69;5075788;27;46146;-69
2022/11/20 09:45:50;;;;;;;;;1.33;1.33;;;;;25.78;45.87;100902.09;5072384;27;45474;-69
2022/11/20 09:48:30;;;;;;;;;2.00;2.00;;;;;25.80;46.29;100897.34;5074952;28;45797;-69
2022/11/20 09:51:34;;;;;;;;;3.00;3.00;;;;;25.79;46.07;100898.38;5072675;27;45493;-69
2022/11/20 09:54:10;;;;;;;;;3.00;1.00;;;;;25.74;45.68;100892.59;5073001;27;45481;-70
2022/11/20 09:56:41;;;;;;;;;3.00;1.00;;;;;25.74;45.67;100901.63;5072111;27;45515;-70
2022/11/20 09:59:17;;;;;;;;;1.00;1.00;;;;;25.75;45.92;100903.31;5082074;27;45552;-70
2022/11/20 10:01:44;;;;;;;;;2.00;2.00;;;;;25.76;46.28;100902.28;5073675;27;45577;-71
2022/11/20 10:04:20;;;;;;;;;2.00;2.00;;;;;25.81;45.65;100887.28;5069216;27;45478;-71
2022/11/20 10:07:02;;;;;;;;;2.00;2.00;;;;;25.84;45.41;100895.97;5071705;27;45586;-70
2022/11/20 10:09:32;;;;;;;;;1.00;0.67;;;;;25.85;45.34;100894.94;5073821;27;45433;-69
2022/11/20 10:12:14;;;;;;;;;2.00;2.00;;;;;25.86;45.09;100895.75;5073064;27;45653;-69
2022/11/20 10:15:04;;;;;;;;;4.33;3.00;;;;;25.88;45.72;100899.97;5074924;27;46761;-68
2022/11/20 10:17:51;;;;;;;;;3.67;3.00;;;;;25.92;45.09;100893.16;5070340;27;45506;-70
2022/11/20 10:20:44;;;;;;;;;3.33;3.33;;;;;25.95;45.42;100894.66;5072142;27;45448;-70
2022/11/20 10:23:47;;;;;;;;;3.33;3.00;;;;;25.98;45.52;100891.59;5074117;27;45425;-68
2022/11/20 10:26:17;;;;;;;;;2.00;2.00;;;;;26.00;45.50;100892.25;5072488;27;47108;-69
2022/11/20 10:28:57;;;;;;;;;2.00;2.00;;;;;25.95;44.89;100875.63;5074638;28;45342;-67
2022/11/20 20:24:09;;;;;;;;;12.50;8.50;;;;;17.88;53.88;100875.13;5095497;27;46046;-68
2022/11/20 20:26:35;;;;;;;;;7.50;7.50;;;;;18.17;54.40;100882.63;5083577;27;45599;-70
2022/11/20 20:29:01;;;;;;;;;7.50;7.50;;;;;18.65;55.05;100883.09;5081194;27;45715;-69
2022/11/20 20:31:29;;;;;;;;;9.25;7.25;;;;;19.16;55.08;100885.91;5088898;27;45622;-69
2022/11/20 20:33:55;;;;;;;;;9.50;8.25;;;;;19.77;54.54;100894.00;5085520;27;46538;-69
2022/11/20 20:36:22;;;;;;;;;9.00;8.00;;;;;20.28;54.61;100892.06;5087964;27;45450;-69
2022/11/20 20:38:51;;;;;;;;;9.50;8.00;;;;;20.79;54.47;100905.31;5081656;27;45414;-69
2022/11/20 20:41:21;;;;;;;;;6.50;6.50;;;;;21.21;53.94;100893.25;5088625;27;45598;-69
2022/11/20 20:46:30;;;;;;;;;7.00;7.00;;;;;22.04;53.71;100896.91;5085428;27;45430;-68
2022/11/20 20:48:55;;;;;;;;;6.00;6.00;;;;;22.39;53.04;100899.69;5089338;27;45847;-69
2022/11/20 20:51:22;;;;;;;;;6.67;5.67;;;;;22.72;52.79;100891.03;5088836;27;46487;-70
2022/11/20 20:53:48;;;;;;;;;6.00;6.00;;;;;23.01;52.61;100896.06;5087716;27;52787;-68
2022/11/20 20:56:14;;;;;;;;;7.67;6.67;;;;;23.26;52.11;100904.31;5090373;27;45572;-67
2022/11/20 20:58:39;;;;;;;;;5.00;5.00;;;;;23.50;51.81;100901.91;5083642;27;45617;-67
2022/11/20 21:01:08;;;;;;;;;11.33;7.00;;;;;23.68;51.65;100891.78;5089044;27;45441;-67
2022/11/20 21:03:34;;;;;;;;;6.00;6.00;;;;;23.88;51.44;100894.19;5089087;27;46344;-68
2022/11/20 21:06:00;;;;;;;;;7.33;6.00;;;;;24.03;51.34;100899.78;5087761;27;46221;-72
2022/11/20 21:08:27;;;;;;;;;6.33;6.33;;;;;24.19;51.10;100895.41;5085419;27;45362;-71
2022/11/20 21:10:55;;;;;;;;;7.00;5.50;;;;;24.32;50.72;100900.34;5090974;27;45389;-71
2022/11/20 21:13:22;;;;;;;;;9.00;5.33;;;;;24.39;50.57;100892.38;5089523;27;45421;-71
2022/11/20 21:15:49;;;;;;;;;6.00;6.00;;;;;24.48;50.37;100897.59;5088997;27;45784;-71
2022/11/20 21:18:16;;;;;;;;;8.67;6.00;;;;;24.50;49.97;100902.88;5084470;27;45943;-69
2022/11/20 21:23:26;;;;;;;;;9.00;7.00;;;;;24.63;49.67;100906.91;5088075;27;46050;-72
2022/11/20 21:25:51;;;;;;;;;6.00;6.00;;;;;24.65;49.29;100907.59;5088582;27;45476;-73
2022/11/20 21:28:16;;;;;;;;;6.67;6.67;;;;;24.77;49.82;100917.06;5087029;27;52751;-69
2022/11/20 21:30:42;;;;;;;;;5.00;5.00;;;;;24.86;49.69;100928.78;5088958;27;45742;-67
2022/11/20 21:33:07;;;;;;;;;7.00;6.00;;;;;24.93;49.72;100926.25;5087938;27;47071;-66
2022/11/20 21:35:33;;;;;;;;;5.00;5.00;;;;;25.04;49.33;100936.72;5072136;27;55108;-66
2022/11/20 21:37:58;;;;;;;;;6.67;5.33;;;;;25.15;49.29;100929.22;5071783;28;45525;-67
2022/11/20 21:40:24;;;;;;;;;5.33;5.33;;;;;25.25;48.97;100927.13;5075991;27;45658;-69
2022/11/20 21:42:49;;;;;;;;;7.00;5.67;;;;;25.33;48.74;100915.38;5074745;27;46164;-70
2022/11/20 21:45:14;;;;;;;;;5.00;5.00;;;;;25.39;48.95;100923.69;5075843;27;45664;-70
2022/11/20 21:47:40;;;;;;;;;7.33;5.33;;;;;25.36;48.58;100910.47;5077811;27;49280;-70
2022/11/20 21:50:05;;;;;;;;;5.33;5.33;;;;;25.43;48.44;100916.03;5074913;27;54045;-69
2022/11/20 21:52:30;;;;;;;;;5.33;5.00;;;;;25.43;48.22;100924.19;5074853;28;46595;-67
2022/11/20 21:54:56;;;;;;;;;7.00;6.00;;;;;25.40;48.05;100932.69;5076114;28;50070;-66
2022/11/20 21:57:21;;;;;;;;;4.67;4.67;;;;;25.40;48.05;100927.25;5073970;27;45534;-66
2022/11/20 21:59:46;;;;;;;;;5.33;5.33;;;;;25.43;48.15;100934.19;5074891;27;45498;-67
2022/11/20 22:02:12;;;;;;;;;3.33;3.33;;;;;25.45;48.35;100943.00;5075144;27;45436;-67
2022/11/20 22:04:37;;;;;;;;;4.67;4.67;;;;;25.49;48.31;100949.78;5077593;27;45292;-66
2022/11/20 22:07:04;;;;;;;;;5.00;5.00;;;;;25.53;47.67;100946.56;5072954;27;47283;-69
2022/11/20 22:09:30;;;;;;;;;4.67;4.67;;;;;25.56;47.63;100950.81;5070884;27;45355;-68
2022/11/20 22:11:55;;;;;;;;;5.33;5.00;;;;;25.61;47.74;100955.72;5071880;27;52537;-69
2022/11/20 22:14:20;;;;;;;;;5.00;5.00;;;;;25.62;47.58;100952.81;5069819;28;45794;-69
2022/11/20 22:16:46;;;;;;;;;4.67;4.67;;;;;25.69;47.91;100957.53;5075087;27;45415;-68
2022/11/20 22:19:15;;;;;;;;;5.00;3.00;;;;;25.77;47.45;100954.78;5073774;27;45417;-66
2022/11/20 22:21:41;;;;;;;;;4.67;4.67;;;;;25.81;47.74;100945.25;5067906;27;46263;-67
